createdAt,value
2023-05-15T00:00:37.199Z,97475.56
2023-05-15T00:03:09.696Z,97476.63
2023-05-15T00:05:40.893Z,97475.06
2023-05-15T00:08:13.852Z,97476.81
2023-05-15T00:10:57.452Z,97465.97
2023-05-15T00:13:32.266Z,97469.31
2023-05-15T00:16:05.497Z,97467.09
2023-05-15T00:18:37.708Z,97478.47
2023-05-15T00:21:08.741Z,97477.25
2023-05-15T00:23:39.949Z,97486.25
2023-05-15T00:26:13.037Z,97491.66
2023-05-15T00:28:46.092Z,97488.28
2023-05-15T00:31:18.884Z,97484.00
2023-05-15T00:33:51.054Z,97482.34
2023-05-15T00:36:24.183Z,97484.44
2023-05-15T00:38:57.117Z,97494.38
2023-05-15T00:41:30.787Z,97497.97
2023-05-15T00:44:05.718Z,97492.22
2023-05-15T00:46:39.844Z,97490.78
2023-05-15T00:49:15.561Z,97508.38
2023-05-15T00:51:47.706Z,97508.25
2023-05-15T00:54:20.818Z,97509.13
2023-05-15T00:56:53.705Z,97517.03
2023-05-15T00:59:29.364Z,97516.34
2023-05-15T01:02:01.746Z,97524.09
2023-05-15T01:04:34.807Z,97521.56
2023-05-15T01:07:07.398Z,97522.50
2023-05-15T01:09:40.992Z,97528.97
2023-05-15T01:12:15.024Z,97535.94
2023-05-15T01:14:47.845Z,97544.25
2023-05-15T01:17:19.934Z,97549.13
2023-05-15T01:19:55.268Z,97544.88
2023-05-15T01:22:48.651Z,97551.34
2023-05-15T01:25:46.474Z,97554.13
2023-05-15T01:28:28.964Z,97560.22
2023-05-15T01:31:08.380Z,97568.97
2023-05-15T01:33:46.416Z,97577.06
2023-05-15T01:36:37.842Z,97572.78
2023-05-15T01:39:11.778Z,97579.53
2023-05-15T01:42:19.115Z,97583.72
2023-05-15T01:44:57.502Z,97589.84
2023-05-15T01:47:37.332Z,97597.66
2023-05-15T01:50:12.878Z,97604.84
2023-05-15T01:52:49.989Z,97603.59
2023-05-15T01:55:24.252Z,97599.25
2023-05-15T01:57:58.074Z,97596.78
2023-05-15T02:00:32.114Z,97592.47
2023-05-15T02:03:05.440Z,97601.69
2023-05-15T02:05:39.248Z,97602.41
2023-05-15T02:08:12.246Z,97612.16
2023-05-15T02:10:45.004Z,97611.56
2023-05-15T02:13:19.099Z,97615.59
2023-05-15T02:15:50.614Z,97614.94
2023-05-15T02:18:23.543Z,97622.28
2023-05-15T02:20:56.309Z,97611.84
2023-05-15T02:23:28.526Z,97611.78
2023-05-15T02:26:24.037Z,97610.06
2023-05-15T02:29:02.037Z,97613.13
2023-05-15T02:31:58.720Z,97611.41
2023-05-15T02:34:38.996Z,97610.66
2023-05-15T02:37:18.042Z,97615.41
2023-05-15T02:39:56.023Z,97615.22
2023-05-15T02:42:29.839Z,97613.47
2023-05-15T02:45:03.938Z,97621.72
2023-05-15T02:47:38.011Z,97618.94
2023-05-15T02:50:10.981Z,97628.72
2023-05-15T02:52:43.839Z,97630.13
2023-05-15T02:55:16.992Z,97628.78
2023-05-15T02:57:50.147Z,97637.28
2023-05-15T03:00:20.168Z,97640.38
2023-05-15T03:02:49.165Z,97638.16
2023-05-15T03:05:18.479Z,97636.19
2023-05-15T03:07:47.425Z,97636.38
2023-05-15T03:10:16.892Z,97648.03
2023-05-15T03:12:46.152Z,97649.53
2023-05-15T03:15:15.185Z,97658.81
2023-05-15T03:17:44.509Z,97659.88
2023-05-15T03:20:15.094Z,97658.44
2023-05-15T03:22:44.256Z,97670.31
2023-05-15T03:25:13.727Z,97670.09
2023-05-15T03:27:42.915Z,97669.78
2023-05-15T03:30:12.370Z,97672.47
2023-05-15T03:32:41.625Z,97680.97
2023-05-15T03:35:11.618Z,97679.22
2023-05-15T03:37:40.946Z,97682.03
2023-05-15T03:40:10.280Z,97688.72
2023-05-15T03:42:40.080Z,97690.63
2023-05-15T03:45:13.273Z,97681.59
2023-05-15T03:47:43.887Z,97675.03
2023-05-15T03:50:13.309Z,97683.56
2023-05-15T03:52:42.514Z,97680.50
2023-05-15T03:55:11.734Z,97681.81
2023-05-15T03:57:42.688Z,97679.81
2023-05-15T04:00:12.283Z,97679.34
2023-05-15T04:02:42.113Z,97679.50
2023-05-15T04:05:11.793Z,97672.84
2023-05-15T04:07:40.759Z,97672.78
2023-05-15T04:10:10.161Z,97672.13
2023-05-15T04:12:39.301Z,97678.00
2023-05-15T04:15:22.481Z,97697.47
2023-05-15T04:17:54.107Z,97709.81
2023-05-15T04:20:25.198Z,97717.50
2023-05-15T04:22:55.024Z,97724.44
2023-05-15T04:25:25.490Z,97723.44
2023-05-15T04:27:54.776Z,97722.56
2023-05-15T04:30:24.066Z,97722.91
2023-05-15T04:32:53.285Z,97719.63
2023-05-15T04:35:22.392Z,97718.88
2023-05-15T04:37:51.503Z,97728.78
2023-05-15T04:40:20.415Z,97732.06
2023-05-15T04:42:49.696Z,97735.53
2023-05-15T04:45:19.388Z,97730.03
2023-05-15T04:47:53.515Z,97729.09
2023-05-15T04:50:23.156Z,97729.56
2023-05-15T04:52:52.513Z,97726.78
2023-05-15T04:55:22.074Z,97733.47
2023-05-15T04:57:52.441Z,97731.25
2023-05-15T05:00:21.713Z,97725.22
2023-05-15T05:11:40.297Z,97728.13
2023-05-15T05:14:09.504Z,97727.19
2023-05-15T05:16:38.717Z,97729.84
2023-05-15T05:19:08.137Z,97733.63
2023-05-15T05:21:37.142Z,97735.06
2023-05-15T05:24:06.372Z,97739.41
2023-05-15T05:26:35.426Z,97743.06
2023-05-15T05:29:04.904Z,97738.63
2023-05-15T05:31:34.327Z,97734.59
2023-05-15T05:34:03.875Z,97744.53
2023-05-15T05:36:32.985Z,97739.84
2023-05-15T05:39:02.442Z,97741.03
2023-05-15T05:41:31.869Z,97753.03
2023-05-15T05:44:01.351Z,97744.31
2023-05-15T05:46:30.669Z,97748.41
2023-05-15T05:49:05.721Z,97750.22
2023-05-15T05:51:39.905Z,97744.16
2023-05-15T05:54:09.267Z,97743.53
2023-05-15T05:56:38.353Z,97741.31
2023-05-15T05:59:07.553Z,97744.78
2023-05-15T06:01:36.686Z,97738.72
2023-05-15T06:04:06.164Z,97738.09
2023-05-15T06:06:35.715Z,97736.94
2023-05-15T06:09:06.826Z,97733.19
2023-05-15T06:11:41.929Z,97743.38
2023-05-15T06:14:13.063Z,97738.28
2023-05-15T06:16:42.521Z,97733.25
2023-05-15T06:19:12.256Z,97728.47
2023-05-15T06:21:42.188Z,97730.34
2023-05-15T06:24:11.564Z,97735.59
2023-05-15T06:26:40.956Z,97728.69
2023-05-15T06:29:10.414Z,97723.34
2023-05-15T06:31:40.144Z,97716.59
2023-05-15T06:34:09.588Z,97712.66
2023-05-15T06:36:39.487Z,97719.81
2023-05-15T06:39:11.826Z,97702.81
2023-05-15T06:41:41.732Z,97718.44
2023-05-15T06:44:15.047Z,97707.38
2023-05-15T06:46:48.745Z,97697.50
2023-05-15T06:49:20.935Z,97697.31
2023-05-15T06:51:51.107Z,97696.22
2023-05-15T06:54:21.232Z,97693.75
2023-05-15T06:56:51.183Z,97694.63
2023-05-15T06:59:24.836Z,97696.53
2023-05-15T07:01:58.843Z,97689.66
2023-05-15T07:04:32.463Z,97688.22
2023-05-15T07:07:04.158Z,97685.56
2023-05-15T07:09:34.470Z,97677.63
2023-05-15T07:12:05.758Z,97674.19
2023-05-15T07:14:36.286Z,97668.81
2023-05-15T07:17:08.052Z,97671.47
2023-05-15T07:19:39.518Z,97665.47
2023-05-15T07:22:12.765Z,97664.44
2023-05-15T07:24:43.294Z,97660.34
2023-05-15T07:27:14.931Z,97660.91
2023-05-15T07:29:45.136Z,97651.97
2023-05-15T07:32:15.475Z,97653.41
2023-05-15T07:35:04.012Z,97662.34
2023-05-15T07:37:36.715Z,97665.47
2023-05-15T07:40:08.271Z,97652.44
2023-05-15T07:42:38.198Z,97649.00
2023-05-15T07:45:11.313Z,97654.50
2023-05-15T07:47:57.805Z,97647.34
2023-05-15T07:50:41.648Z,97653.88
2023-05-15T07:53:11.573Z,97644.97
2023-05-15T07:55:42.779Z,97645.81
2023-05-15T07:58:13.324Z,97646.16
2023-05-15T08:00:43.716Z,97631.75
2023-05-15T08:03:14.542Z,97628.03
2023-05-15T08:05:44.748Z,97624.31
2023-05-15T08:08:22.369Z,97626.28
2023-05-15T08:11:03.257Z,97620.81
2023-05-15T08:13:37.112Z,97608.19
2023-05-15T08:16:07.527Z,97608.88
2023-05-15T08:18:40.393Z,97601.38
2023-05-15T08:21:18.193Z,97612.44
2023-05-15T08:23:48.234Z,97608.66
2023-05-15T08:26:18.537Z,97605.63
2023-05-15T08:28:50.638Z,97603.19
2023-05-15T08:31:20.931Z,97602.53
2023-05-15T08:33:51.226Z,97597.94
2023-05-15T08:36:24.269Z,97582.44
2023-05-15T08:38:54.240Z,97581.66
2023-05-15T08:41:50.212Z,97578.31
2023-05-15T08:44:29.647Z,97574.81
2023-05-15T08:47:01.649Z,97580.13
2023-05-15T08:49:51.090Z,97570.53
2023-05-15T08:52:24.129Z,97560.13
2023-05-15T08:54:55.041Z,97565.38
2023-05-15T08:57:27.845Z,97552.09
2023-05-15T08:59:59.031Z,97556.78
2023-05-15T09:02:29.390Z,97554.88
2023-05-15T09:04:59.573Z,97548.47
2023-05-15T09:07:31.415Z,97556.00
2023-05-15T09:10:03.454Z,97546.53
2023-05-15T09:12:36.156Z,97537.44
2023-05-15T09:15:19.322Z,97538.16
2023-05-15T09:17:54.747Z,97528.81
2023-05-15T09:20:30.692Z,97527.31
2023-05-15T09:23:04.654Z,97525.22
2023-05-15T09:25:41.324Z,97513.50
2023-05-15T09:28:15.243Z,97512.59
2023-05-15T09:30:45.722Z,97507.91
2023-05-15T09:33:18.572Z,97510.16
2023-05-15T09:35:52.167Z,97502.38
2023-05-15T09:38:25.627Z,97499.91
2023-05-15T09:41:19.211Z,97499.38
2023-05-15T09:43:59.351Z,97497.00
2023-05-15T09:46:45.155Z,97483.59
2023-05-15T09:49:18.622Z,97485.97
2023-05-15T09:51:55.167Z,97483.91
2023-05-15T09:54:32.845Z,97483.97
2023-05-15T09:57:16.762Z,97471.53
2023-05-15T09:59:54.400Z,97467.81
2023-05-15T10:02:41.166Z,97469.69
2023-05-15T10:05:31.691Z,97464.19
2023-05-15T10:08:26.648Z,97464.56
2023-05-15T10:11:11.905Z,97455.72
2023-05-15T10:13:48.439Z,97452.59
2023-05-15T10:16:37.706Z,97446.88
2023-05-15T10:19:28.472Z,97450.63
2023-05-15T10:22:08.953Z,97452.44
2023-05-15T10:24:55.451Z,97449.66
2023-05-15T10:27:42.706Z,97444.22
2023-05-15T10:30:20.391Z,97430.84
2023-05-15T10:33:42.008Z,97439.09
2023-05-15T10:36:43.249Z,97432.53
2023-05-15T10:39:23.305Z,97433.44
2023-05-15T10:42:00.172Z,97422.66
2023-05-15T10:47:38.393Z,97416.63
2023-05-15T10:56:22.212Z,97421.50
2023-05-15T11:02:02.476Z,97407.94
2023-05-15T11:04:46.742Z,97409.94
2023-05-15T11:08:14.624Z,97402.06
2023-05-15T11:11:08.141Z,97398.97
2023-05-15T11:14:53.778Z,97401.41
2023-05-15T11:17:36.277Z,97403.69
2023-05-15T11:20:20.861Z,97397.97
2023-05-15T11:23:04.472Z,97397.56
2023-05-15T11:25:47.125Z,97389.69
2023-05-15T11:28:32.065Z,97388.44
2023-05-15T11:34:17.424Z,97393.84
2023-05-15T11:37:34.090Z,97390.53
2023-05-15T11:40:22.594Z,97391.56
2023-05-15T11:52:44.909Z,97383.53
2023-05-15T11:58:31.993Z,97382.28
2023-05-15T12:01:18.265Z,97384.59
2023-05-15T12:04:31.634Z,97383.97
2023-05-15T12:10:57.771Z,97378.81
2023-05-15T12:17:21.866Z,97387.69
2023-05-15T12:20:56.245Z,97377.19
2023-05-15T12:26:50.228Z,97384.38
2023-05-15T12:29:41.704Z,97383.53
2023-05-15T12:32:26.434Z,97377.78
2023-05-15T12:35:13.078Z,97384.78
2023-05-15T12:38:11.702Z,97379.00
2023-05-15T12:40:55.841Z,97376.53
2023-05-15T12:43:38.612Z,97380.41
2023-05-15T12:46:38.888Z,97381.47
2023-05-15T12:49:14.049Z,97368.03
2023-05-15T12:52:07.997Z,97374.00
2023-05-15T12:55:00.234Z,97373.56
2023-05-15T12:57:36.418Z,97368.97
2023-05-15T13:00:22.151Z,97375.91
2023-05-15T13:03:24.326Z,97375.13
2023-05-15T13:06:21.275Z,97382.66
2023-05-15T13:09:04.035Z,97382.72
2023-05-15T13:14:46.076Z,97353.91
2023-05-15T13:17:24.222Z,97387.69
2023-05-15T13:20:20.510Z,97384.22
2023-05-15T13:25:59.505Z,97384.09
2023-05-15T13:28:59.969Z,97388.56
2023-05-15T13:31:51.943Z,97396.47
2023-05-15T13:34:31.630Z,97399.91
2023-05-15T13:37:06.602Z,97397.41
2023-05-15T13:40:09.040Z,97406.06
2023-05-15T13:42:44.927Z,97416.50
2023-05-15T13:49:28.891Z,97408.25
2023-05-15T13:52:44.820Z,97412.63
2023-05-15T13:55:40.298Z,97414.03
2023-05-15T13:58:24.724Z,97414.19
2023-05-15T14:01:20.352Z,97418.19
2023-05-15T14:04:00.822Z,97419.94
2023-05-15T14:09:33.736Z,97418.47
2023-05-15T14:12:10.250Z,97422.19
2023-05-15T14:14:57.567Z,97426.06
2023-05-15T14:17:37.877Z,97433.97
2023-05-15T14:20:16.226Z,97433.59
2023-05-15T14:28:51.925Z,97440.22
2023-05-15T14:31:32.056Z,97444.34
2023-05-15T14:34:39.616Z,97441.16
2023-05-15T14:37:43.484Z,97453.25
2023-05-15T14:40:33.639Z,97444.09
2023-05-15T14:46:27.208Z,97450.22
2023-05-15T14:58:31.294Z,97448.88
2023-05-15T15:04:09.976Z,97452.22
2023-05-15T15:07:18.887Z,97462.91
2023-05-15T15:10:07.387Z,97456.72
2023-05-15T15:16:04.831Z,97444.72
2023-05-15T15:18:41.800Z,97443.06
2023-05-15T15:21:41.910Z,97445.63
2023-05-15T15:27:34.542Z,97442.84
2023-05-15T15:30:40.068Z,97440.66
2023-05-15T15:33:41.395Z,97446.94
2023-05-15T15:36:34.668Z,97447.81
2023-05-15T15:39:26.375Z,97438.16
2023-05-15T15:42:14.990Z,97438.78
2023-05-15T15:48:10.444Z,97449.00
2023-05-15T15:54:11.898Z,97446.44
2023-05-15T16:00:15.043Z,97446.69
2023-05-15T16:06:08.981Z,97448.06
2023-05-15T16:12:20.622Z,97468.03
2023-05-15T16:18:01.758Z,97478.38
2023-05-15T16:29:43.447Z,97477.22
2023-05-15T16:32:53.905Z,97477.06
2023-05-15T16:36:04.460Z,97474.72
2023-05-15T16:42:04.712Z,97469.38
2023-05-15T16:45:25.535Z,97457.91
2023-05-15T16:48:27.342Z,97458.91
2023-05-15T16:51:15.226Z,97450.94
2023-05-15T16:56:48.743Z,97445.34
2023-05-15T17:03:15.430Z,97426.34
2023-05-15T17:06:20.173Z,97427.03
2023-05-15T17:09:14.493Z,97433.41
2023-05-15T17:12:27.254Z,97426.78
2023-05-15T17:15:19.080Z,97430.88
2023-05-15T17:18:36.605Z,97431.53
2023-05-15T17:21:40.539Z,97439.81
2023-05-15T17:24:18.507Z,97434.66
2023-05-15T17:27:13.652Z,97438.41
2023-05-15T17:30:06.037Z,97448.72
2023-05-15T17:39:20.318Z,97442.00
2023-05-15T17:48:17.719Z,97454.66
2023-05-15T17:51:17.795Z,97460.78
2023-05-15T17:56:52.620Z,97454.69
2023-05-15T18:09:13.378Z,97463.81
2023-05-15T18:11:59.121Z,97460.22
2023-05-15T18:17:57.215Z,97468.97
2023-05-15T18:20:47.640Z,97473.16
2023-05-15T18:23:26.521Z,97474.28
2023-05-15T18:26:14.354Z,97469.63
2023-05-15T18:35:12.269Z,97478.94
2023-05-15T18:41:05.830Z,97473.47
2023-05-15T18:43:39.925Z,97475.34
2023-05-15T18:49:27.337Z,97489.13
2023-05-15T18:55:32.948Z,97483.59
2023-05-15T18:58:37.026Z,97487.19
2023-05-15T19:01:12.656Z,97484.09
2023-05-15T19:04:00.660Z,97484.13
2023-05-15T19:06:42.482Z,97491.03
2023-05-15T19:09:19.371Z,97492.75
2023-05-15T19:11:59.130Z,97494.31
2023-05-15T19:15:04.467Z,97498.75
2023-05-15T19:17:43.766Z,97501.97
2023-05-15T19:20:30.522Z,97493.19
2023-05-15T19:26:27.869Z,97501.31
2023-05-15T19:29:16.153Z,97487.00
2023-05-15T19:31:52.655Z,97493.19
2023-05-15T19:34:37.357Z,97493.03
2023-05-15T19:37:15.222Z,97496.16
2023-05-15T19:39:52.829Z,97492.13
2023-05-15T19:42:33.822Z,97493.50
2023-05-15T19:45:15.644Z,97487.13
2023-05-15T19:50:58.738Z,97495.13
2023-05-15T19:53:54.356Z,97496.59
2023-05-15T19:56:34.087Z,97497.63
2023-05-15T19:59:06.990Z,97494.91
2023-05-15T20:11:10.401Z,97488.19
2023-05-15T20:22:50.681Z,97487.13
2023-05-15T20:25:34.598Z,97479.41
2023-05-15T20:28:12.936Z,97475.94
2023-05-15T20:30:47.295Z,97476.88
2023-05-15T20:33:37.419Z,97473.22
2023-05-15T20:36:30.720Z,97464.19
2023-05-15T20:39:29.413Z,97464.03
2023-05-15T20:42:21.709Z,97457.25
2023-05-15T20:45:12.429Z,97455.91
2023-05-15T20:48:16.814Z,97447.25
2023-05-15T20:51:09.868Z,97447.41
2023-05-15T20:54:09.669Z,97439.63
2023-05-15T20:57:04.780Z,97437.56
2023-05-15T21:00:02.665Z,97446.75
2023-05-15T21:06:09.673Z,97441.78
2023-05-15T21:11:53.287Z,97437.63
2023-05-15T21:17:33.953Z,97452.22
2023-05-15T21:20:19.038Z,97442.91
2023-05-15T21:23:18.610Z,97445.97
2023-05-15T21:26:06.840Z,97446.25
2023-05-15T21:28:44.785Z,97449.47
2023-05-15T21:31:20.166Z,97456.56
2023-05-15T21:36:50.055Z,97447.66
2023-05-15T21:39:24.366Z,97443.34
2023-05-15T21:45:06.673Z,97444.91
2023-05-15T21:47:49.686Z,97447.94
2023-05-15T21:53:24.962Z,97450.72
2023-05-15T21:56:11.230Z,97454.38
2023-05-15T21:58:43.674Z,97457.19
2023-05-15T22:01:35.742Z,97454.34
2023-05-15T22:04:10.358Z,97457.50
2023-05-15T22:06:45.556Z,97457.84
2023-05-15T22:09:17.986Z,97468.91
2023-05-15T22:11:57.624Z,97472.22
2023-05-15T22:14:54.443Z,97482.28
2023-05-15T22:17:39.061Z,97479.75
2023-05-15T22:20:13.613Z,97488.66
2023-05-15T22:22:45.911Z,97499.75
2023-05-15T22:25:18.332Z,97518.13
2023-05-15T22:27:50.838Z,97541.06
2023-05-15T22:30:23.104Z,97565.09
2023-05-15T22:35:52.503Z,97563.16
2023-05-15T22:38:42.716Z,97546.22
2023-05-15T22:41:20.540Z,97539.25
2023-05-15T22:43:52.928Z,97550.66
2023-05-15T22:46:40.180Z,97563.03
2023-05-15T22:49:25.614Z,97562.94
2023-05-15T22:52:22.677Z,97558.19
2023-05-15T22:55:16.717Z,97560.13
2023-05-15T22:57:51.123Z,97559.72
2023-05-15T23:00:23.256Z,97558.28
2023-05-15T23:02:57.178Z,97558.88
2023-05-15T23:05:30.107Z,97566.38
2023-05-15T23:11:05.534Z,97567.84
2023-05-15T23:13:49.076Z,97568.03
2023-05-15T23:19:40.863Z,97571.91
2023-05-15T23:22:25.269Z,97565.38
2023-05-15T23:24:57.809Z,97577.88
2023-05-15T23:27:27.747Z,97570.38
2023-05-15T23:29:58.619Z,97570.94
2023-05-15T23:32:32.250Z,97587.19
2023-05-15T23:35:04.508Z,97587.47
2023-05-15T23:38:01.351Z,97597.63
2023-05-15T23:40:41.989Z,97601.91
2023-05-15T23:43:16.664Z,97612.91
2023-05-15T23:45:55.375Z,97608.75
2023-05-15T23:48:34.624Z,97614.31
2023-05-15T23:51:12.440Z,97625.38
2023-05-15T23:53:54.816Z,97630.41
2023-05-15T23:56:28.398Z,97633.44
2023-05-15T23:59:01.060Z,97641.38
